Terminal Aerodrome Forecast
Issued by NWS

Home | Current Version | Previous Version | Text Only | Print | Product List | Glossary On
Versions: 1 2 3 4 5 6 7 8 9 10 11 12 13 14 15 16 17
000
FTUS43 KEAX 152300
TAFSTJ
TAF
KSTJ 152327Z 1600/1624 29016G26KT P6SM OVC015
     FM161000 31014G24KT P6SM OVC025
     FM161800 32013G22KT P6SM SCT030
     FM162000 33010KT P6SM SCT030=

USA.gov is the U.S. government's official web portal to all federal, state and local government web resources and services.